Time;durP1;ratioP1;P1;durP2;ratioP2;P2;SDS_P1;SDS_P2;PMS_P1;PMS_P2;Temp;Humidity;BMP_temperature;BMP_pressure;BME280_temperature;BME280_humidity;BME280_pressure;Samples;Min_cycle;Max_cycle;Signal;HPM_P1;HPM_P2
2021/12/07 00:00:39;;;;;;;47.30;19.20;;;;;;;-3.70;99.57;99849.81;4079703;29;21306;-78
2021/12/07 00:03:06;;;;;;;49.30;19.57;;;;;;;-3.70;98.95;99862.81;4076749;29;20244;-77
2021/12/07 00:05:33;;;;;;;47.40;19.30;;;;;;;-3.67;99.48;99856.63;4093428;29;20358;-77
2021/12/07 00:08:00;;;;;;;48.60;20.03;;;;;;;-3.50;99.60;99858.44;4094092;29;23783;-79
2021/12/07 00:10:26;;;;;;;49.27;20.43;;;;;;;-3.38;99.06;99862.25;4081410;29;20249;-77
2021/12/07 00:12:53;;;;;;;48.53;20.23;;;;;;;-3.37;98.70;99861.31;4078671;29;22102;-78
2021/12/07 00:15:23;;;;;;;49.10;19.47;;;;;;;-3.45;98.39;99859.91;4083520;29;21182;-76
2021/12/07 00:17:52;;;;;;;49.63;20.80;;;;;;;-3.54;98.25;99859.50;4086452;29;20344;-80
2021/12/07 00:20:20;;;;;;;51.07;19.87;;;;;;;-3.56;98.29;99862.16;4075810;29;20254;-77
2021/12/07 00:22:51;;;;;;;52.50;20.37;;;;;;;-3.74;98.70;99869.06;4080959;29;20761;-75
2021/12/07 00:25:18;;;;;;;54.67;20.83;;;;;;;-3.71;99.16;99870.66;4080039;29;20344;-75
2021/12/07 00:27:47;;;;;;;51.40;20.73;;;;;;;-3.60;99.05;99878.84;4073752;29;21170;-74
2021/12/07 00:30:15;;;;;;;53.00;20.97;;;;;;;-3.46;98.89;99875.63;4096041;29;21756;-76
2021/12/07 00:32:48;;;;;;;52.53;19.77;;;;;;;-3.60;98.12;99884.03;4085438;29;21275;-74
2021/12/07 00:35:34;;;;;;;56.10;20.97;;;;;;;-3.71;98.05;99887.09;4098078;29;24477;-74
2021/12/07 00:38:09;;;;;;;51.03;20.17;;;;;;;-3.93;98.40;99882.03;4080759;29;20758;-73
2021/12/07 00:40:37;;;;;;;51.30;21.73;;;;;;;-3.97;99.34;99890.00;4081494;29;20295;-73
2021/12/07 00:43:04;;;;;;;54.23;20.13;;;;;;;-3.92;99.29;99883.69;4081885;29;20240;-72
2021/12/07 00:45:33;;;;;;;50.90;19.70;;;;;;;-4.01;99.27;99888.44;4086953;29;21852;-73
2021/12/07 00:48:00;;;;;;;52.27;21.10;;;;;;;-3.87;99.71;99892.13;4081219;29;26207;-74
2021/12/07 00:50:28;;;;;;;54.50;20.47;;;;;;;-3.74;99.35;99899.41;4068183;29;20240;-75
2021/12/07 00:52:56;;;;;;;53.37;21.10;;;;;;;-3.68;98.12;99902.56;4079847;29;22028;-76
2021/12/07 00:55:26;;;;;;;48.63;19.47;;;;;;;-3.73;98.50;99903.69;4087065;29;22890;-74
2021/12/07 00:57:56;;;;;;;54.03;19.97;;;;;;;-3.76;97.89;99901.22;4093158;29;21065;-74
2021/12/07 01:00:29;;;;;;;48.97;18.83;;;;;;;-3.70;97.91;99906.13;4089594;29;21809;-75
2021/12/07 01:02:56;;;;;;;47.80;18.83;;;;;;;-3.84;97.40;99907.63;4057721;29;20350;-75
2021/12/07 01:05:29;;;;;;;46.87;18.43;;;;;;;-3.88;98.48;99911.25;4077481;29;22438;-79
2021/12/07 01:24:41;;;;;;;52.67;19.07;;;;;;;-3.91;98.67;99901.00;4082395;29;22960;-75
2021/12/07 01:27:21;;;;;;;50.67;18.87;;;;;;;-3.91;98.91;99906.19;4066624;29;20237;-74
2021/12/07 01:30:00;;;;;;;43.03;17.53;;;;;;;-4.04;98.91;99910.22;4082050;29;20305;-74
2021/12/07 01:32:48;;;;;;;48.07;19.53;;;;;;;-3.94;99.41;99915.84;4085267;29;22686;-75
2021/12/07 01:38:21;;;;;;;47.93;18.77;;;;;;;-3.86;98.00;99904.22;4081587;29;21734;-75
2021/12/07 01:41:12;;;;;;;50.87;19.13;;;;;;;-3.82;97.87;99904.91;4069775;29;22142;-74
2021/12/07 01:44:12;;;;;;;48.27;18.67;;;;;;;-3.85;97.84;99905.91;4072612;29;20471;-75
2021/12/07 01:47:01;;;;;;;48.30;19.33;;;;;;;-3.80;97.47;99904.88;4100619;29;20721;-76
2021/12/07 01:58:07;;;;;;;53.37;19.27;;;;;;;-3.62;97.94;99891.06;4081941;29;22345;-76
2021/12/07 02:00:38;;;;;;;55.77;19.87;;;;;;;-3.66;96.93;99890.34;4073524;29;20313;-77
2021/12/07 02:03:05;;;;;;;47.43;18.97;;;;;;;-3.66;97.06;99892.94;4085340;29;20729;-78
2021/12/07 02:05:32;;;;;;;51.10;20.40;;;;;;;-3.69;97.35;99890.47;4082001;29;20324;-76
2021/12/07 02:07:59;;;;;;;52.47;19.77;;;;;;;-3.90;97.34;99886.25;4080562;29;20302;-77
2021/12/07 02:10:28;;;;;;;50.03;19.80;;;;;;;-3.91;97.83;99887.13;4077817;29;21368;-74
2021/12/07 02:13:02;;;;;;;52.00;18.73;;;;;;;-3.87;97.38;99897.31;4079069;29;20666;-76
2021/12/07 02:15:31;;;;;;;48.13;18.17;;;;;;;-3.82;97.71;99898.00;4072725;29;20321;-75
2021/12/07 02:17:58;;;;;;;45.40;18.60;;;;;;;-3.77;97.70;99907.31;4093025;29;21171;-77
2021/12/07 02:20:27;;;;;;;49.77;18.70;;;;;;;-3.82;97.04;99918.78;4080833;29;20238;-80
2021/12/07 02:22:54;;;;;;;54.60;18.70;;;;;;;-3.93;96.89;99918.41;4058648;29;20360;-76
2021/12/07 02:25:21;;;;;;;50.67;19.70;;;;;;;-4.01;96.96;99910.06;4080771;29;20238;-75
2021/12/07 02:27:48;;;;;;;46.77;17.73;;;;;;;-3.99;97.05;99918.66;4090842;29;26468;-76
2021/12/07 02:30:18;;;;;;;49.97;20.03;;;;;;;-4.08;97.64;99921.66;4085817;29;20255;-80
2021/12/07 02:32:46;;;;;;;50.30;19.13;;;;;;;-4.11;98.02;99917.44;4063226;29;20316;-75
2021/12/07 02:35:16;;;;;;;51.40;18.47;;;;;;;-4.00;97.94;99911.78;4077818;29;22949;-75
2021/12/07 02:37:43;;;;;;;46.20;18.07;;;;;;;-3.96;97.90;99905.53;4091746;29;22815;-76
2021/12/07 02:40:10;;;;;;;45.80;19.20;;;;;;;-3.89;98.35;99906.09;4083513;29;20446;-76
2021/12/07 02:42:36;;;;;;;57.40;20.67;;;;;;;-3.67;97.95;99904.25;4090429;29;20270;-75
2021/12/07 02:45:05;;;;;;;58.37;20.50;;;;;;;-3.68;97.21;99906.91;4086305;29;20374;-75
2021/12/07 02:47:35;;;;;;;56.57;19.43;;;;;;;-3.74;96.58;99908.03;4077166;29;20230;-75
2021/12/07 02:50:06;;;;;;;58.77;19.43;;;;;;;-3.86;96.67;99903.38;4086466;29;21958;-74
2021/12/07 02:52:32;;;;;;;44.73;17.83;;;;;;;-3.90;97.53;99902.66;4065227;29;20312;-75
2021/12/07 02:54:59;;;;;;;49.90;18.10;;;;;;;-3.91;97.18;99903.59;4083031;29;20266;-74
2021/12/07 02:57:26;;;;;;;45.57;17.93;;;;;;;-3.89;97.17;99909.53;4080277;29;20334;-74
2021/12/07 03:00:05;;;;;;;46.80;16.57;;;;;;;-3.80;96.85;99908.31;4069266;29;20354;-76
2021/12/07 03:02:37;;;;;;;45.03;17.83;;;;;;;-3.83;97.38;99900.66;4083735;29;20666;-76
2021/12/07 03:05:16;;;;;;;53.77;20.40;;;;;;;-3.79;97.55;99901.34;4096277;29;21633;-77
2021/12/07 03:26:43;;;;;;;49.63;18.83;;;;;;;-3.93;97.92;99896.78;4083167;29;23070;-76
2021/12/07 03:29:10;;;;;;;53.33;19.33;;;;;;;-3.79;98.05;99896.16;4070070;29;20316;-75
2021/12/07 03:31:36;;;;;;;51.00;19.87;;;;;;;-3.68;97.77;99901.72;4092301;29;20316;-75
2021/12/07 03:34:03;;;;;;;54.73;20.10;;;;;;;-3.60;97.67;99904.84;4083035;29;22898;-75
2021/12/07 03:36:30;;;;;;;49.67;19.00;;;;;;;-3.45;96.98;99900.69;4090179;29;22577;-75
2021/12/07 03:38:56;;;;;;;49.40;19.07;;;;;;;-3.46;96.50;99897.25;4074842;29;20249;-75
2021/12/07 03:41:23;;;;;;;59.53;20.40;;;;;;;-3.54;96.35;99898.50;4087620;29;20262;-74
2021/12/07 03:43:50;;;;;;;51.77;19.90;;;;;;;-3.53;96.62;99903.66;4080161;29;20233;-76
2021/12/07 03:46:17;;;;;;;49.10;18.43;;;;;;;-3.36;96.38;99897.69;4077492;29;20299;-74
2021/12/07 03:48:44;;;;;;;51.73;19.23;;;;;;;-3.60;96.24;99902.25;4076450;29;20691;-75
2021/12/07 03:51:12;;;;;;;48.07;18.17;;;;;;;-3.59;96.51;99900.47;4066351;29;20245;-74
2021/12/07 03:53:38;;;;;;;48.47;18.57;;;;;;;-3.64;96.08;99904.13;4085772;29;20758;-75
2021/12/07 03:56:06;;;;;;;50.67;18.80;;;;;;;-3.54;95.73;99893.31;4075237;29;20295;-76
2021/12/07 03:58:33;;;;;;;42.40;16.17;;;;;;;-3.65;95.27;99901.59;4076268;29;20243;-77
2021/12/07 04:00:59;;;;;;;43.33;16.87;;;;;;;-3.86;95.87;99904.22;4080269;29;20712;-76
2021/12/07 04:03:32;;;;;;;42.83;16.03;;;;;;;-4.01;96.17;99910.06;4084780;29;21673;-76
2021/12/07 04:06:04;;;;;;;44.90;17.33;;;;;;;-3.96;97.17;99908.13;4086822;29;20490;-75
2021/12/07 04:08:31;;;;;;;45.77;18.07;;;;;;;-3.95;97.86;99914.19;4088498;29;20253;-75
2021/12/07 04:10:58;;;;;;;52.13;18.63;;;;;;;-3.85;97.90;99916.31;4067119;29;20250;-75
2021/12/07 04:13:25;;;;;;;54.83;18.23;;;;;;;-3.82;97.67;99924.00;4094115;29;20328;-75
2021/12/07 04:15:53;;;;;;;50.00;17.80;;;;;;;-3.94;97.09;99918.47;4091719;29;22381;-75
2021/12/07 04:18:20;;;;;;;48.20;16.73;;;;;;;-4.03;97.98;99930.09;4079795;29;20254;-75
2021/12/07 04:20:47;;;;;;;50.27;18.10;;;;;;;-4.09;98.00;99927.75;4089514;29;23541;-76
2021/12/07 04:23:14;;;;;;;47.77;16.80;;;;;;;-4.01;97.66;99928.25;4077161;29;20314;-76
2021/12/07 04:25:40;;;;;;;48.10;17.43;;;;;;;-4.03;97.88;99933.56;4107387;29;20252;-76
2021/12/07 04:28:07;;;;;;;56.00;18.60;;;;;;;-4.08;97.82;99942.44;4084819;29;20349;-77
2021/12/07 04:30:39;;;;;;;54.70;18.60;;;;;;;-4.00;98.10;99931.69;4085344;29;21591;-74
2021/12/07 04:33:08;;;;;;;50.63;17.43;;;;;;;-3.99;97.97;99933.41;4100008;29;20256;-76
2021/12/07 04:35:36;;;;;;;51.07;18.80;;;;;;;-4.00;97.61;99942.97;4085931;29;20297;-77
2021/12/07 04:38:03;;;;;;;58.27;19.47;;;;;;;-3.93;97.84;99936.59;4078612;29;22874;-75
2021/12/07 04:40:31;;;;;;;50.97;18.37;;;;;;;-3.91;97.64;99947.78;4080459;29;20241;-76
2021/12/07 04:42:58;;;;;;;56.90;19.40;;;;;;;-3.70;97.01;99937.34;4069541;29;20284;-78
2021/12/07 04:45:49;;;;;;;54.40;20.07;;;;;;;-3.74;96.75;99938.41;4088369;29;23116;-76
2021/12/07 04:59:01;;;;;;;59.70;19.67;;;;;;;-3.81;97.19;99930.03;4082239;29;20233;-75
2021/12/07 05:01:28;;;;;;;61.10;20.07;;;;;;;-3.85;96.71;99931.91;4087363;29;20233;-76
2021/12/07 05:03:58;;;;;;;61.77;21.40;;;;;;;-3.92;96.95;99935.66;4076124;29;20361;-75
2021/12/07 05:06:28;;;;;;;60.87;20.23;;;;;;;-4.07;97.41;99939.78;4077753;29;20251;-77
2021/12/07 05:09:01;;;;;;;65.47;20.73;;;;;;;-4.17;98.05;99942.81;4070434;29;20313;-76
2021/12/07 05:11:44;;;;;;;63.80;21.70;;;;;;;-4.28;98.60;99944.13;4077961;29;20840;-78
2021/12/07 05:14:17;;;;;;;62.93;22.17;;;;;;;-4.14;98.49;99953.94;4082786;29;21272;-78
2021/12/07 05:25:15;;;;;;;67.60;24.30;;;;;;;-3.83;98.19;99956.06;4079741;29;20241;-77
2021/12/07 05:38:40;;;;;;;77.47;24.87;;;;;;;-3.80;97.72;99969.84;4082805;29;20257;-77
2021/12/07 05:41:08;;;;;;;71.90;24.43;;;;;;;-3.82;97.51;99973.38;4081256;29;21274;-77
2021/12/07 05:43:35;;;;;;;65.90;23.50;;;;;;;-3.81;97.60;99974.22;4074227;29;20263;-76
2021/12/07 05:46:03;;;;;;;71.77;24.53;;;;;;;-3.72;97.43;99975.56;4088354;29;20242;-76
2021/12/07 05:48:30;;;;;;;64.97;23.20;;;;;;;-3.62;97.15;99971.66;4097363;29;20895;-75
2021/12/07 05:50:57;;;;;;;66.00;21.93;;;;;;;-3.63;96.05;99967.34;4068786;29;20278;-75
2021/12/07 05:53:24;;;;;;;65.20;22.80;;;;;;;-3.79;96.33;99961.13;4074231;29;20351;-78
2021/12/07 05:55:50;;;;;;;65.80;22.17;;;;;;;-3.96;96.63;99960.09;4083845;29;20848;-76
2021/12/07 05:58:19;;;;;;;67.67;22.77;;;;;;;-3.98;97.56;99966.28;4074464;29;20237;-75
2021/12/07 06:00:47;;;;;;;59.67;21.33;;;;;;;-3.89;97.69;99968.47;4084768;29;21817;-75
2021/12/07 06:03:15;;;;;;;61.03;21.73;;;;;;;-3.84;97.42;99963.94;4076145;29;26744;-76
2021/12/07 06:05:42;;;;;;;62.80;22.70;;;;;;;-3.84;97.80;99962.19;4063145;29;20427;-76
2021/12/07 06:08:10;;;;;;;66.73;22.80;;;;;;;-3.78;97.41;99957.63;4066131;29;20359;-75
2021/12/07 06:10:37;;;;;;;71.10;22.37;;;;;;;-3.72;97.18;99963.44;4083656;29;20254;-75
2021/12/07 06:13:04;;;;;;;64.40;21.97;;;;;;;-3.67;96.75;99960.63;4075150;29;22030;-78
2021/12/07 06:15:34;;;;;;;63.27;21.93;;;;;;;-3.76;97.14;99958.41;4066593;29;20270;-76
2021/12/07 06:18:01;;;;;;;60.07;20.77;;;;;;;-3.62;97.38;99964.69;4091851;29;20366;-75
2021/12/07 06:20:28;;;;;;;68.47;21.93;;;;;;;-3.80;96.70;99964.66;4079694;29;20248;-77
2021/12/07 06:23:10;;;;;;;61.17;20.60;;;;;;;-3.76;96.72;99969.66;4065876;29;20306;-76
2021/12/07 06:25:36;;;;;;;57.13;20.57;;;;;;;-3.69;96.58;99967.63;4082743;29;20237;-76
2021/12/07 06:28:03;;;;;;;61.10;19.53;;;;;;;-3.73;96.65;99972.13;4078033;29;20233;-76
2021/12/07 06:30:30;;;;;;;54.30;21.40;;;;;;;-3.71;96.78;99972.06;4073583;29;20244;-76
2021/12/07 06:32:56;;;;;;;64.60;20.70;;;;;;;-3.73;96.90;99968.69;4095786;29;22682;-75
2021/12/07 06:35:23;;;;;;;56.97;21.17;;;;;;;-3.80;97.37;99968.09;4082402;29;20279;-77
2021/12/07 06:37:50;;;;;;;61.00;21.00;;;;;;;-3.74;97.24;99974.81;4083410;29;20287;-76
2021/12/07 06:40:22;;;;;;;61.53;20.93;;;;;;;-3.59;97.07;99984.53;4072014;29;20230;-76
2021/12/07 06:42:48;;;;;;;63.27;21.33;;;;;;;-3.65;96.79;99977.00;4080230;29;20327;-76
2021/12/07 06:45:15;;;;;;;59.73;20.43;;;;;;;-3.66;96.82;99980.50;4072390;29;20253;-75
2021/12/07 06:47:41;;;;;;;61.37;20.90;;;;;;;-3.56;96.65;99978.34;4081130;29;23143;-76
2021/12/07 06:50:09;;;;;;;61.83;20.73;;;;;;;-3.51;96.46;99982.44;4094542;29;23028;-76
2021/12/07 06:52:36;;;;;;;59.40;21.40;;;;;;;-3.52;95.63;99985.94;4076770;29;20248;-77
2021/12/07 06:55:05;;;;;;;56.03;20.83;;;;;;;-3.58;95.20;99988.84;4090892;29;20290;-77
2021/12/07 06:57:31;;;;;;;64.67;21.20;;;;;;;-3.75;95.52;99994.72;4073663;29;21779;-76
2021/12/07 06:59:58;;;;;;;60.03;21.90;;;;;;;-3.75;95.85;99992.13;4089926;29;20314;-76
2021/12/07 07:02:24;;;;;;;63.60;22.20;;;;;;;-3.69;95.59;99989.28;4077171;29;25504;-76
2021/12/07 07:04:51;;;;;;;62.10;21.47;;;;;;;-3.75;95.58;99993.88;4079137;29;21862;-74
2021/12/07 07:07:22;;;;;;;64.27;22.43;;;;;;;-3.76;96.45;99976.63;4076552;29;20970;-77
2021/12/07 07:09:49;;;;;;;60.90;22.33;;;;;;;-3.71;96.76;99991.09;4074500;29;20246;-75
2021/12/07 07:12:16;;;;;;;63.73;21.40;;;;;;;-3.65;95.89;99993.44;4062669;29;20241;-75
2021/12/07 07:14:43;;;;;;;64.87;22.50;;;;;;;-3.71;96.20;99993.69;4084358;29;20229;-75
2021/12/07 07:17:10;;;;;;;76.87;24.17;;;;;;;-3.76;96.44;99997.41;4085640;29;20270;-75
2021/12/07 07:19:42;;;;;;;65.07;21.63;;;;;;;-3.67;96.46;99991.81;4077589;29;20309;-75
2021/12/07 07:22:08;;;;;;;63.93;22.87;;;;;;;-3.70;96.58;99997.13;4082272;29;21173;-76
2021/12/07 07:24:36;;;;;;;61.30;22.47;;;;;;;-3.77;96.24;100003.50;4081287;29;20345;-75
2021/12/07 07:27:03;;;;;;;61.97;22.07;;;;;;;-4.00;96.55;99999.25;4088893;29;20243;-75
2021/12/07 07:29:30;;;;;;;62.93;22.37;;;;;;;-4.07;97.28;99996.09;4087688;29;20242;-76
2021/12/07 07:31:57;;;;;;;68.27;21.40;;;;;;;-4.09;97.97;100005.72;4102081;29;26743;-73
2021/12/07 07:34:24;;;;;;;64.30;22.03;;;;;;;-4.04;97.42;100007.19;4076824;29;22341;-77
2021/12/07 07:36:51;;;;;;;64.53;22.27;;;;;;;-4.03;97.71;100006.31;4087202;29;20247;-77
2021/12/07 07:39:18;;;;;;;61.67;21.40;;;;;;;-3.87;97.49;100011.69;4097691;29;20266;-77
2021/12/07 07:41:45;;;;;;;64.50;22.27;;;;;;;-3.95;97.00;100013.78;4090721;29;20254;-73
2021/12/07 07:44:12;;;;;;;65.83;21.50;;;;;;;-3.90;96.88;100017.03;4098919;29;20245;-76
2021/12/07 07:46:38;;;;;;;57.20;21.50;;;;;;;-3.93;96.61;100017.16;4083038;29;20436;-75
2021/12/07 07:49:05;;;;;;;62.47;22.77;;;;;;;-3.92;97.35;100018.00;4079807;29;20272;-76
2021/12/07 07:51:32;;;;;;;60.67;21.03;;;;;;;-3.82;97.05;100020.16;4064941;29;20279;-78
2021/12/07 07:54:00;;;;;;;52.67;18.20;;;;;;;-3.86;96.16;100021.19;4084893;29;20384;-77
2021/12/07 07:56:30;;;;;;;48.33;18.07;;;;;;;-3.98;95.71;100019.13;4077343;29;22283;-78
2021/12/07 07:58:57;;;;;;;52.47;19.17;;;;;;;-3.93;95.14;100021.53;4069626;29;20242;-76
2021/12/07 08:01:24;;;;;;;50.57;18.67;;;;;;;-3.85;95.31;100022.88;4080770;29;22456;-76
2021/12/07 08:03:51;;;;;;;47.70;17.23;;;;;;;-3.78;95.34;100025.22;4075177;29;21223;-75
2021/12/07 08:06:18;;;;;;;42.27;16.07;;;;;;;-3.82;93.74;100029.69;4079408;29;20376;-76
2021/12/07 08:08:45;;;;;;;31.73;11.97;;;;;;;-3.79;93.12;100024.38;4061517;29;20254;-76
2021/12/07 08:11:13;;;;;;;31.20;12.63;;;;;;;-3.78;91.63;100035.63;4080022;29;21794;-77
2021/12/07 08:13:40;;;;;;;33.63;12.50;;;;;;;-3.69;91.66;100030.88;4079120;29;20245;-76
2021/12/07 08:16:15;;;;;;;33.77;12.50;;;;;;;-3.62;91.38;100026.28;4066490;29;20242;-79
2021/12/07 08:18:46;;;;;;;32.27;12.53;;;;;;;-3.66;90.54;100024.69;4080716;29;20585;-77
2021/12/07 08:21:14;;;;;;;38.40;14.67;;;;;;;-3.64;91.22;100035.88;4078743;29;20238;-78
2021/12/07 08:23:42;;;;;;;41.13;14.40;;;;;;;-3.63;90.89;100035.84;4053049;29;20753;-77
2021/12/07 08:26:11;;;;;;;35.47;14.63;;;;;;;-3.62;91.11;100044.47;4070325;29;20458;-76
2021/12/07 08:28:38;;;;;;;35.83;14.70;;;;;;;-3.67;90.79;100043.81;4058149;29;21906;-76
2021/12/07 08:31:04;;;;;;;35.90;13.40;;;;;;;-3.71;89.96;100044.84;4088581;29;20738;-76
2021/12/07 08:33:32;;;;;;;42.40;14.23;;;;;;;-3.76;90.37;100050.25;4079197;29;24458;-80
2021/12/07 08:36:00;;;;;;;41.90;14.83;;;;;;;-3.65;91.51;100053.25;4069876;29;20331;-78
2021/12/07 08:38:27;;;;;;;42.33;16.60;;;;;;;-3.49;91.10;100052.59;4086232;29;20236;-78
2021/12/07 08:40:56;;;;;;;47.73;16.70;;;;;;;-3.41;90.75;100056.56;4076283;29;20315;-80
2021/12/07 08:43:25;;;;;;;42.17;18.03;;;;;;;-3.29;90.45;100069.94;4094918;29;20234;-79
2021/12/07 08:45:53;;;;;;;51.27;18.07;;;;;;;-3.41;90.54;100066.97;4080942;29;20245;-78
2021/12/07 08:48:20;;;;;;;46.07;19.13;;;;;;;-3.58;91.65;100073.78;4061901;29;20473;-81
2021/12/07 08:50:47;;;;;;;57.13;20.30;;;;;;;-3.56;93.34;100070.19;4119991;29;20245;-67
2021/12/07 08:53:16;;;;;;;55.83;21.43;;;;;;;-3.46;94.59;100074.13;4072955;29;26627;-74
2021/12/07 09:01:18;;;;;;;48.57;18.70;;;;;;;-3.60;91.37;100068.66;4077924;29;24766;-73
2021/12/07 09:03:46;;;;;;;47.13;17.97;;;;;;;-3.62;91.38;100067.88;4087492;29;20254;-75
2021/12/07 09:06:13;;;;;;;41.93;16.23;;;;;;;-3.66;91.47;100071.50;4077062;29;21222;-73
2021/12/07 09:08:40;;;;;;;49.70;18.00;;;;;;;-3.53;91.82;100077.91;4067798;29;25649;-76
2021/12/07 09:11:09;;;;;;;46.83;18.27;;;;;;;-3.48;91.52;100075.94;4074417;29;20307;-76
2021/12/07 09:13:36;;;;;;;44.23;16.77;;;;;;;-3.51;90.91;100076.06;4071699;29;22977;-75
2021/12/07 09:16:04;;;;;;;45.63;17.03;;;;;;;-3.48;91.14;100077.69;4085596;29;20244;-75
2021/12/07 09:18:31;;;;;;;41.20;16.13;;;;;;;-3.60;90.71;100081.66;4083053;29;20245;-78
2021/12/07 09:20:59;;;;;;;39.07;15.07;;;;;;;-3.51;91.30;100081.28;4089038;29;20234;-77
2021/12/07 09:23:25;;;;;;;43.73;16.63;;;;;;;-3.42;91.23;100086.09;4054039;29;20246;-75
2021/12/07 09:25:53;;;;;;;45.63;16.50;;;;;;;-3.41;90.59;100081.72;4108887;29;21804;-75
2021/12/07 09:28:20;;;;;;;40.90;16.93;;;;;;;-3.51;91.10;100083.88;4088122;29;20241;-75
2021/12/07 09:30:51;;;;;;;43.17;15.97;;;;;;;-3.50;90.98;100075.16;4072424;29;20242;-77
2021/12/07 09:33:20;;;;;;;36.97;15.17;;;;;;;-3.43;91.38;100073.13;4078983;29;20234;-76
2021/12/07 09:35:50;;;;;;;39.33;15.60;;;;;;;-3.45;90.45;100078.41;4076588;29;20250;-74
2021/12/07 09:38:17;;;;;;;36.37;13.00;;;;;;;-3.59;90.03;100067.75;4086450;29;23040;-77
2021/12/07 09:40:45;;;;;;;32.27;13.60;;;;;;;-3.66;90.32;100071.50;4116337;29;20318;-76
2021/12/07 09:43:12;;;;;;;34.47;13.33;;;;;;;-3.61;90.57;100066.94;4060744;29;21580;-78
2021/12/07 09:45:41;;;;;;;30.00;12.53;;;;;;;-3.61;89.99;100069.56;4060664;29;21344;-74
2021/12/07 09:48:10;;;;;;;34.43;12.20;;;;;;;-3.64;90.05;100067.09;4081818;29;20242;-74
2021/12/07 09:50:43;;;;;;;32.70;12.63;;;;;;;-3.58;90.26;100069.44;4069922;29;20947;-74
2021/12/07 09:53:12;;;;;;;32.10;14.13;;;;;;;-3.53;90.64;100071.84;4060661;29;23609;-75
2021/12/07 09:55:39;;;;;;;28.77;11.80;;;;;;;-3.44;90.54;100067.09;4088405;29;20312;-76
2021/12/07 09:58:06;;;;;;;25.17;11.10;;;;;;;-3.50;89.77;100067.34;4061073;29;20314;-78
2021/12/07 10:00:36;;;;;;;29.70;11.80;;;;;;;-3.48;89.68;100064.69;4094503;29;20251;-77
2021/12/07 10:03:04;;;;;;;25.90;11.37;;;;;;;-3.35;90.06;100059.81;4083125;29;22538;-76
2021/12/07 10:05:34;;;;;;;27.30;12.47;;;;;;;-3.40;88.67;100058.22;4100155;29;21244;-78
2021/12/07 10:08:03;;;;;;;30.53;12.67;;;;;;;-3.45;89.02;100060.19;4085133;29;21164;-75
2021/12/07 10:10:35;;;;;;;24.70;11.33;;;;;;;-3.52;89.48;100057.94;4078521;29;22283;-75
2021/12/07 10:13:04;;;;;;;27.97;11.90;;;;;;;-3.49;89.66;100063.00;4074099;29;20232;-75
2021/12/07 10:15:31;;;;;;;28.83;12.17;;;;;;;-3.54;89.33;100054.53;4093732;29;20238;-75
2021/12/07 10:18:11;;;;;;;31.70;13.10;;;;;;;-3.65;89.91;100055.84;4074818;29;20284;-77
2021/12/07 10:21:04;;;;;;;32.77;13.60;;;;;;;-3.50;92.31;100059.53;4101041;29;21988;-75
2021/12/07 10:23:37;;;;;;;31.97;12.27;;;;;;;-3.48;88.85;100043.88;4133723;29;20308;-76
2021/12/07 10:26:06;;;;;;;31.63;12.73;;;;;;;-3.48;89.58;100054.28;4110887;29;20248;-77
2021/12/07 10:28:39;;;;;;;37.70;13.30;;;;;;;-3.38;90.15;100050.38;4174628;29;20770;-76
2021/12/07 10:31:06;;;;;;;37.63;14.90;;;;;;;-3.28;88.98;100056.03;4188960;29;20627;-75
2021/12/07 10:33:42;;;;;;;36.93;14.93;;;;;;;-3.29;89.14;100041.34;4093622;29;22110;-79
2021/12/07 10:36:11;;;;;;;36.90;14.50;;;;;;;-3.24;88.58;100050.63;4175411;29;20248;-77
2021/12/07 10:38:39;;;;;;;35.37;14.83;;;;;;;-3.13;89.21;100038.91;4082905;29;20233;-80
2021/12/07 10:41:11;;;;;;;42.33;18.00;;;;;;;-3.19;88.77;100045.22;4113251;29;20245;-76
2021/12/07 10:43:43;;;;;;;52.40;19.37;;;;;;;-3.27;88.86;100045.56;4083286;29;20253;-75
2021/12/07 10:46:32;;;;;;;48.27;18.73;;;;;;;-3.31;89.49;100037.94;4173759;29;23613;-75
2021/12/07 10:49:23;;;;;;;49.53;18.43;;;;;;;-3.29;88.51;100042.16;4158815;29;20286;-75
2021/12/07 10:52:08;;;;;;;48.17;18.73;;;;;;;-3.25;88.58;100046.34;4100799;29;20325;-76
2021/12/07 10:54:40;;;;;;;42.93;19.10;;;;;;;-3.14;88.95;100050.22;4170284;29;21617;-77
2021/12/07 10:57:10;;;;;;;42.60;18.67;;;;;;;-3.19;88.69;100046.03;4073293;29;20391;-84
2021/12/07 10:59:38;;;;;;;41.80;17.17;;;;;;;-3.13;88.74;100050.16;4128393;29;20324;-77
2021/12/07 11:02:14;;;;;;;38.83;18.17;;;;;;;-3.01;88.75;100052.22;4144918;29;20298;-74
2021/12/07 11:04:42;;;;;;;43.93;17.50;;;;;;;-2.99;87.72;100049.53;4085505;29;22934;-76
2021/12/07 11:07:14;;;;;;;40.27;16.80;;;;;;;-3.09;87.65;100041.31;4146509;29;23167;-79
2021/12/07 11:09:59;;;;;;;44.93;18.23;;;;;;;-3.18;87.94;100046.91;4086453;29;22842;-77
2021/12/07 11:12:29;;;;;;;42.53;16.77;;;;;;;-3.18;88.44;100046.91;4107160;29;22545;-76
2021/12/07 11:14:59;;;;;;;41.03;18.00;;;;;;;-3.00;88.98;100038.28;4105920;29;20709;-76
2021/12/07 11:17:33;;;;;;;38.43;18.23;;;;;;;-2.68;88.73;100045.53;4068692;29;20403;-77
2021/12/07 11:20:04;;;;;;;42.00;16.90;;;;;;;-2.49;87.42;100037.72;4077670;29;20242;-74
2021/12/07 11:22:37;;;;;;;38.00;16.03;;;;;;;-2.56;85.94;100044.97;4106791;29;20248;-77
2021/12/07 11:25:05;;;;;;;39.03;17.33;;;;;;;-2.45;86.18;100036.66;4091626;29;20283;-77
2021/12/07 11:30:27;;;;;;;39.83;16.03;;;;;;;-2.36;85.38;100046.66;4101128;29;21642;-78
2021/12/07 11:32:59;;;;;;;41.73;16.83;;;;;;;-2.14;86.04;100041.25;4110610;29;20440;-77
2021/12/07 11:35:35;;;;;;;43.23;17.00;;;;;;;-2.45;83.76;100040.09;4221579;29;22377;-78
2021/12/07 11:38:05;;;;;;;45.33;16.50;;;;;;;-2.90;84.88;100040.47;4178688;29;20341;-82
2021/12/07 11:40:37;;;;;;;42.70;16.67;;;;;;;-3.01;86.84;100044.41;4144826;29;20291;-79
2021/12/07 11:43:15;;;;;;;43.30;16.80;;;;;;;-2.94;87.39;100052.78;4154244;29;20246;-82
2021/12/07 11:45:43;;;;;;;46.27;18.87;;;;;;;-2.87;87.56;100058.56;4246584;29;21272;-79
2021/12/07 11:48:15;;;;;;;42.23;19.00;;;;;;;-2.92;87.47;100053.56;4160599;29;20313;-77
2021/12/07 11:50:50;;;;;;;48.20;20.27;;;;;;;-3.03;87.79;100061.84;4197740;29;22508;-78
2021/12/07 11:53:22;;;;;;;52.67;21.23;;;;;;;-3.20;88.31;100059.97;4147397;29;22672;-77
2021/12/07 11:55:52;;;;;;;52.73;20.57;;;;;;;-3.13;88.85;100064.94;4140063;29;20255;-79
2021/12/07 11:58:19;;;;;;;47.10;20.87;;;;;;;-3.10;89.23;100067.38;4203277;29;22675;-76
2021/12/07 12:00:50;;;;;;;48.87;21.27;;;;;;;-3.01;89.60;100073.03;4206128;29;20275;-74
2021/12/07 12:03:18;;;;;;;51.40;20.47;;;;;;;-2.89;89.41;100074.25;4144232;29;21978;-76
2021/12/07 12:05:47;;;;;;;45.57;18.30;;;;;;;-2.76;88.89;100084.97;4103449;29;20768;-72
2021/12/07 12:08:16;;;;;;;43.30;17.67;;;;;;;-2.85;88.52;100074.97;4103573;29;20240;-75
2021/12/07 12:10:47;;;;;;;48.13;18.80;;;;;;;-2.97;88.99;100082.41;4090976;29;21770;-73
2021/12/07 12:13:17;;;;;;;47.10;17.70;;;;;;;-3.09;88.96;100080.34;4075932;29;20325;-74
2021/12/07 12:16:02;;;;;;;45.70;17.07;;;;;;;-3.12;89.41;100077.84;4085144;29;21869;-76
2021/12/07 12:18:53;;;;;;;43.17;18.10;;;;;;;-3.16;90.26;100078.94;4069672;29;20238;-78
2021/12/07 12:21:47;;;;;;;50.63;18.03;;;;;;;-2.99;90.34;100084.22;4092069;29;20294;-77
2021/12/07 12:24:40;;;;;;;45.53;18.40;;;;;;;-3.10;89.00;100086.44;4085855;29;20445;-77
2021/12/07 12:27:33;;;;;;;44.23;17.27;;;;;;;-3.44;89.24;100080.09;4082668;29;20344;-80
2021/12/07 12:30:17;;;;;;;45.53;17.90;;;;;;;-3.30;90.02;100086.47;4101684;29;20236;-78
2021/12/07 12:32:54;;;;;;;45.17;17.80;;;;;;;-3.48;90.18;100091.53;4091455;29;21541;-81
2021/12/07 12:35:40;;;;;;;41.93;17.00;;;;;;;-3.57;90.61;100086.72;4071256;29;20245;-77
2021/12/07 12:38:20;;;;;;;47.33;18.90;;;;;;;-3.54;91.22;100089.19;4069869;29;20415;-79
2021/12/07 12:41:02;;;;;;;42.47;16.27;;;;;;;-3.62;91.06;100093.88;4073619;29;20359;-74
2021/12/07 12:43:35;;;;;;;47.53;17.87;;;;;;;-3.47;91.70;100088.00;4080982;29;20238;-76
2021/12/07 12:46:03;;;;;;;45.33;18.00;;;;;;;-3.53;90.82;100092.66;4085739;29;20607;-78
2021/12/07 12:48:30;;;;;;;46.47;18.13;;;;;;;-3.54;91.00;100090.94;4070433;29;20244;-78
2021/12/07 12:50:57;;;;;;;45.73;17.40;;;;;;;-3.44;91.11;100092.28;4666476;29;20244;-76
2021/12/07 12:53:30;;;;;;;43.80;17.20;;;;;;;-3.37;90.76;100092.84;4721606;29;20229;-76